sensor_id;sensor_type;location;lat;lon;timestamp;P1;durP1;ratioP1;P2;durP2;ratioP2
79668;SDS011;69136;52.614;6.976;2024-03-02T00:01:23;4.88;;;2.25;;
79668;SDS011;69136;52.614;6.976;2024-03-02T00:06:52;4.22;;;2.30;;
79668;SDS011;69136;52.614;6.976;2024-03-02T00:09:38;4.50;;;2.33;;
79668;SDS011;69136;52.614;6.976;2024-03-02T00:12:23;3.38;;;2.05;;
79668;SDS011;69136;52.614;6.976;2024-03-02T00:18:26;3.85;;;2.70;;
79668;SDS011;69136;52.614;6.976;2024-03-02T00:21:10;3.88;;;2.63;;
79668;SDS011;69136;52.614;6.976;2024-03-02T00:23:54;4.10;;;2.40;;
79668;SDS011;69136;52.614;6.976;2024-03-02T00:26:39;3.53;;;1.98;;
79668;SDS011;69136;52.614;6.976;2024-03-02T00:29:23;3.58;;;2.40;;
79668;SDS011;69136;52.614;6.976;2024-03-02T00:32:12;2.85;;;2.10;;
79668;SDS011;69136;52.614;6.976;2024-03-02T00:34:58;5.00;;;2.40;;
79668;SDS011;69136;52.614;6.976;2024-03-02T00:40:27;4.18;;;2.42;;
79668;SDS011;69136;52.614;6.976;2024-03-02T00:43:56;5.65;;;2.60;;
79668;SDS011;69136;52.614;6.976;2024-03-02T00:46:30;4.07;;;2.45;;
79668;SDS011;69136;52.614;6.976;2024-03-02T00:49:23;4.63;;;2.90;;
79668;SDS011;69136;52.614;6.976;2024-03-02T00:52:08;4.75;;;2.72;;
79668;SDS011;69136;52.614;6.976;2024-03-02T00:57:36;4.72;;;2.53;;
79668;SDS011;69136;52.614;6.976;2024-03-02T01:00:20;4.63;;;3.00;;
79668;SDS011;69136;52.614;6.976;2024-03-02T01:03:04;5.47;;;2.80;;
79668;SDS011;69136;52.614;6.976;2024-03-02T01:08:32;4.68;;;2.38;;
79668;SDS011;69136;52.614;6.976;2024-03-02T01:11:19;3.83;;;2.60;;
79668;SDS011;69136;52.614;6.976;2024-03-02T01:14:05;4.22;;;2.65;;
79668;SDS011;69136;52.614;6.976;2024-03-02T01:19:33;5.22;;;2.80;;
79668;SDS011;69136;52.614;6.976;2024-03-02T01:25:04;3.97;;;2.67;;
79668;SDS011;69136;52.614;6.976;2024-03-02T01:27:48;3.42;;;2.38;;
79668;SDS011;69136;52.614;6.976;2024-03-02T01:30:32;3.63;;;2.50;;
79668;SDS011;69136;52.614;6.976;2024-03-02T01:36:00;3.53;;;2.50;;
79668;SDS011;69136;52.614;6.976;2024-03-02T01:38:44;3.70;;;2.50;;
79668;SDS011;69136;52.614;6.976;2024-03-02T01:44:12;3.20;;;2.40;;
79668;SDS011;69136;52.614;6.976;2024-03-02T01:46:56;3.75;;;2.22;;
79668;SDS011;69136;52.614;6.976;2024-03-02T01:52:24;4.25;;;2.33;;
79668;SDS011;69136;52.614;6.976;2024-03-02T01:55:09;4.57;;;2.45;;
79668;SDS011;69136;52.614;6.976;2024-03-02T01:57:56;3.10;;;2.30;;
79668;SDS011;69136;52.614;6.976;2024-03-02T02:00:40;4.13;;;2.53;;
79668;SDS011;69136;52.614;6.976;2024-03-02T02:03:24;5.47;;;2.45;;
79668;SDS011;69136;52.614;6.976;2024-03-02T02:06:08;4.30;;;2.40;;
79668;SDS011;69136;52.614;6.976;2024-03-02T02:11:36;3.20;;;2.22;;
79668;SDS011;69136;52.614;6.976;2024-03-02T02:14:20;4.00;;;2.28;;
79668;SDS011;69136;52.614;6.976;2024-03-02T02:19:47;3.47;;;2.15;;
79668;SDS011;69136;52.614;6.976;2024-03-02T02:25:15;5.95;;;2.50;;
79668;SDS011;69136;52.614;6.976;2024-03-02T02:30:43;2.97;;;1.95;;
79668;SDS011;69136;52.614;6.976;2024-03-02T02:33:27;3.42;;;2.17;;
79668;SDS011;69136;52.614;6.976;2024-03-02T02:36:12;4.05;;;2.30;;
79668;SDS011;69136;52.614;6.976;2024-03-02T02:38:56;3.80;;;2.13;;
79668;SDS011;69136;52.614;6.976;2024-03-02T02:41:41;2.97;;;2.40;;
79668;SDS011;69136;52.614;6.976;2024-03-02T02:47:08;3.63;;;2.22;;
79668;SDS011;69136;52.614;6.976;2024-03-02T02:49:53;2.92;;;2.05;;
79668;SDS011;69136;52.614;6.976;2024-03-02T02:52:39;3.83;;;2.20;;
79668;SDS011;69136;52.614;6.976;2024-03-02T02:55:24;4.05;;;2.40;;
79668;SDS011;69136;52.614;6.976;2024-03-02T02:58:08;4.32;;;2.17;;
79668;SDS011;69136;52.614;6.976;2024-03-02T03:03:36;3.80;;;2.15;;
79668;SDS011;69136;52.614;6.976;2024-03-02T03:09:03;3.05;;;2.22;;
79668;SDS011;69136;52.614;6.976;2024-03-02T03:11:47;3.13;;;2.22;;
79668;SDS011;69136;52.614;6.976;2024-03-02T03:14:31;3.03;;;2.22;;
79668;SDS011;69136;52.614;6.976;2024-03-02T03:17:15;6.10;;;2.80;;
79668;SDS011;69136;52.614;6.976;2024-03-02T03:20:01;4.50;;;2.28;;
79668;SDS011;69136;52.614;6.976;2024-03-02T03:22:47;2.88;;;2.00;;
79668;SDS011;69136;52.614;6.976;2024-03-02T03:28:15;3.88;;;2.13;;
79668;SDS011;69136;52.614;6.976;2024-03-02T03:30:59;4.20;;;2.40;;
79668;SDS011;69136;52.614;6.976;2024-03-02T03:33:43;3.20;;;2.08;;
79668;SDS011;69136;52.614;6.976;2024-03-02T03:39:11;3.60;;;2.15;;
79668;SDS011;69136;52.614;6.976;2024-03-02T03:44:39;3.85;;;2.25;;
79668;SDS011;69136;52.614;6.976;2024-03-02T03:47:25;4.57;;;2.58;;
79668;SDS011;69136;52.614;6.976;2024-03-02T03:50:09;4.40;;;2.30;;
79668;SDS011;69136;52.614;6.976;2024-03-02T03:52:53;3.70;;;2.47;;
79668;SDS011;69136;52.614;6.976;2024-03-02T03:58:21;2.83;;;1.75;;
79668;SDS011;69136;52.614;6.976;2024-03-02T04:01:06;2.53;;;1.95;;
79668;SDS011;69136;52.614;6.976;2024-03-02T04:06:33;2.70;;;1.85;;
79668;SDS011;69136;52.614;6.976;2024-03-02T04:12:01;3.42;;;2.03;;
79668;SDS011;69136;52.614;6.976;2024-03-02T04:14:46;4.80;;;2.53;;
79668;SDS011;69136;52.614;6.976;2024-03-02T04:20:14;4.28;;;2.33;;
79668;SDS011;69136;52.614;6.976;2024-03-02T04:22:59;4.05;;;2.17;;
79668;SDS011;69136;52.614;6.976;2024-03-02T04:28:27;5.15;;;2.17;;
79668;SDS011;69136;52.614;6.976;2024-03-02T04:33:55;3.28;;;2.00;;
79668;SDS011;69136;52.614;6.976;2024-03-02T04:39:22;4.60;;;2.30;;
79668;SDS011;69136;52.614;6.976;2024-03-02T04:42:06;3.85;;;2.30;;
79668;SDS011;69136;52.614;6.976;2024-03-02T04:47:34;4.38;;;2.42;;
79668;SDS011;69136;52.614;6.976;2024-03-02T04:50:18;4.70;;;2.15;;
79668;SDS011;69136;52.614;6.976;2024-03-02T04:53:03;4.68;;;2.38;;
79668;SDS011;69136;52.614;6.976;2024-03-02T04:55:47;3.38;;;2.45;;
79668;SDS011;69136;52.614;6.976;2024-03-02T04:58:37;3.90;;;2.22;;
79668;SDS011;69136;52.614;6.976;2024-03-02T05:01:21;5.68;;;2.47;;
79668;SDS011;69136;52.614;6.976;2024-03-02T05:04:05;4.78;;;2.70;;
79668;SDS011;69136;52.614;6.976;2024-03-02T05:06:49;4.65;;;2.28;;
79668;SDS011;69136;52.614;6.976;2024-03-02T05:09:36;4.82;;;2.58;;
79668;SDS011;69136;52.614;6.976;2024-03-02T05:12:20;4.03;;;2.50;;
79668;SDS011;69136;52.614;6.976;2024-03-02T05:15:23;4.38;;;2.40;;
79668;SDS011;69136;52.614;6.976;2024-03-02T05:20:51;4.00;;;2.20;;
79668;SDS011;69136;52.614;6.976;2024-03-02T05:23:35;3.58;;;2.45;;
79668;SDS011;69136;52.614;6.976;2024-03-02T05:26:19;3.80;;;2.75;;
79668;SDS011;69136;52.614;6.976;2024-03-02T05:29:03;4.60;;;2.47;;
79668;SDS011;69136;52.614;6.976;2024-03-02T05:34:31;6.07;;;2.60;;
79668;SDS011;69136;52.614;6.976;2024-03-02T05:37:17;6.47;;;2.60;;
79668;SDS011;69136;52.614;6.976;2024-03-02T05:40:01;5.05;;;3.65;;
79668;SDS011;69136;52.614;6.976;2024-03-02T05:42:46;4.50;;;3.05;;
79668;SDS011;69136;52.614;6.976;2024-03-02T05:45:31;4.43;;;2.58;;
79668;SDS011;69136;52.614;6.976;2024-03-02T05:48:14;4.68;;;2.80;;
79668;SDS011;69136;52.614;6.976;2024-03-02T05:50:58;8.13;;;3.17;;
79668;SDS011;69136;52.614;6.976;2024-03-02T05:56:26;3.95;;;2.60;;
79668;SDS011;69136;52.614;6.976;2024-03-02T05:59:11;5.03;;;2.60;;
79668;SDS011;69136;52.614;6.976;2024-03-02T06:02:00;5.00;;;2.47;;
79668;SDS011;69136;52.614;6.976;2024-03-02T06:07:28;5.90;;;2.85;;
79668;SDS011;69136;52.614;6.976;2024-03-02T06:10:12;5.43;;;2.70;;
79668;SDS011;69136;52.614;6.976;2024-03-02T06:15:42;5.50;;;2.35;;
79668;SDS011;69136;52.614;6.976;2024-03-02T06:21:11;3.58;;;2.28;;
79668;SDS011;69136;52.614;6.976;2024-03-02T06:23:55;4.32;;;2.42;;
79668;SDS011;69136;52.614;6.976;2024-03-02T06:26:40;4.22;;;2.83;;
79668;SDS011;69136;52.614;6.976;2024-03-02T06:29:24;4.22;;;2.50;;
79668;SDS011;69136;52.614;6.976;2024-03-02T06:34:52;4.53;;;3.00;;
79668;SDS011;69136;52.614;6.976;2024-03-02T06:37:37;4.43;;;2.63;;
79668;SDS011;69136;52.614;6.976;2024-03-02T06:40:22;4.10;;;2.67;;
79668;SDS011;69136;52.614;6.976;2024-03-02T06:43:06;4.07;;;2.75;;
79668;SDS011;69136;52.614;6.976;2024-03-02T06:48:34;3.92;;;2.60;;
79668;SDS011;69136;52.614;6.976;2024-03-02T06:51:18;6.07;;;3.42;;
79668;SDS011;69136;52.614;6.976;2024-03-02T06:54:02;4.80;;;3.08;;
79668;SDS011;69136;52.614;6.976;2024-03-02T06:56:46;5.20;;;2.70;;
79668;SDS011;69136;52.614;6.976;2024-03-02T06:59:30;4.18;;;2.70;;
79668;SDS011;69136;52.614;6.976;2024-03-02T07:02:14;5.75;;;3.08;;
79668;SDS011;69136;52.614;6.976;2024-03-02T07:07:43;5.57;;;2.92;;
79668;SDS011;69136;52.614;6.976;2024-03-02T07:13:11;5.25;;;2.67;;
79668;SDS011;69136;52.614;6.976;2024-03-02T07:18:48;4.15;;;2.58;;
79668;SDS011;69136;52.614;6.976;2024-03-02T07:21:35;4.93;;;2.65;;
79668;SDS011;69136;52.614;6.976;2024-03-02T07:27:03;4.57;;;3.03;;
79668;SDS011;69136;52.614;6.976;2024-03-02T07:29:47;4.53;;;2.90;;
79668;SDS011;69136;52.614;6.976;2024-03-02T07:32:32;4.78;;;3.13;;
79668;SDS011;69136;52.614;6.976;2024-03-02T07:38:01;5.95;;;2.50;;
79668;SDS011;69136;52.614;6.976;2024-03-02T07:40:45;6.60;;;2.95;;
79668;SDS011;69136;52.614;6.976;2024-03-02T07:43:30;4.40;;;2.80;;
79668;SDS011;69136;52.614;6.976;2024-03-02T07:46:15;5.13;;;2.58;;
79668;SDS011;69136;52.614;6.976;2024-03-02T07:51:43;4.82;;;2.95;;
79668;SDS011;69136;52.614;6.976;2024-03-02T07:54:27;4.38;;;3.15;;
79668;SDS011;69136;52.614;6.976;2024-03-02T07:59:55;4.90;;;2.90;;
79668;SDS011;69136;52.614;6.976;2024-03-02T08:02:39;4.07;;;2.63;;
79668;SDS011;69136;52.614;6.976;2024-03-02T08:05:24;5.05;;;2.95;;
79668;SDS011;69136;52.614;6.976;2024-03-02T08:08:08;5.13;;;3.15;;
79668;SDS011;69136;52.614;6.976;2024-03-02T08:10:52;4.82;;;3.20;;
79668;SDS011;69136;52.614;6.976;2024-03-02T08:13:36;4.82;;;3.03;;
79668;SDS011;69136;52.614;6.976;2024-03-02T08:16:25;3.78;;;2.72;;
79668;SDS011;69136;52.614;6.976;2024-03-02T08:19:09;5.82;;;3.45;;
79668;SDS011;69136;52.614;6.976;2024-03-02T08:24:37;5.78;;;2.90;;
79668;SDS011;69136;52.614;6.976;2024-03-02T08:27:21;4.82;;;2.90;;
79668;SDS011;69136;52.614;6.976;2024-03-02T08:30:06;5.30;;;2.92;;
79668;SDS011;69136;52.614;6.976;2024-03-02T08:32:51;6.40;;;3.17;;
79668;SDS011;69136;52.614;6.976;2024-03-02T08:35:36;4.25;;;2.70;;
79668;SDS011;69136;52.614;6.976;2024-03-02T08:41:04;5.20;;;3.00;;
79668;SDS011;69136;52.614;6.976;2024-03-02T08:43:48;5.65;;;2.75;;
79668;SDS011;69136;52.614;6.976;2024-03-02T08:46:33;4.53;;;3.00;;
79668;SDS011;69136;52.614;6.976;2024-03-02T08:49:17;4.90;;;2.53;;
79668;SDS011;69136;52.614;6.976;2024-03-02T08:52:01;4.35;;;2.25;;
79668;SDS011;69136;52.614;6.976;2024-03-02T08:54:45;3.63;;;2.40;;
79668;SDS011;69136;52.614;6.976;2024-03-02T08:57:29;6.03;;;3.30;;
79668;SDS011;69136;52.614;6.976;2024-03-02T09:00:14;4.10;;;2.80;;
79668;SDS011;69136;52.614;6.976;2024-03-02T09:02:58;4.97;;;2.72;;
79668;SDS011;69136;52.614;6.976;2024-03-02T09:05:43;3.53;;;2.20;;
79668;SDS011;69136;52.614;6.976;2024-03-02T09:08:27;3.28;;;2.40;;
79668;SDS011;69136;52.614;6.976;2024-03-02T09:11:11;5.53;;;2.70;;
79668;SDS011;69136;52.614;6.976;2024-03-02T09:13:55;3.60;;;2.30;;
79668;SDS011;69136;52.614;6.976;2024-03-02T09:16:41;4.22;;;2.58;;
79668;SDS011;69136;52.614;6.976;2024-03-02T09:19:26;4.63;;;2.10;;
79668;SDS011;69136;52.614;6.976;2024-03-02T09:22:10;3.67;;;2.58;;
79668;SDS011;69136;52.614;6.976;2024-03-02T09:24:56;3.45;;;2.50;;
79668;SDS011;69136;52.614;6.976;2024-03-02T09:30:23;4.40;;;2.38;;
79668;SDS011;69136;52.614;6.976;2024-03-02T09:35:51;4.47;;;2.40;;
79668;SDS011;69136;52.614;6.976;2024-03-02T09:38:35;4.78;;;2.25;;
79668;SDS011;69136;52.614;6.976;2024-03-02T09:41:19;3.55;;;2.22;;
79668;SDS011;69136;52.614;6.976;2024-03-02T09:44:04;3.83;;;2.60;;
79668;SDS011;69136;52.614;6.976;2024-03-02T09:46:49;3.88;;;2.15;;
79668;SDS011;69136;52.614;6.976;2024-03-02T09:49:33;4.22;;;2.28;;
79668;SDS011;69136;52.614;6.976;2024-03-02T09:52:18;6.13;;;2.47;;
79668;SDS011;69136;52.614;6.976;2024-03-02T09:55:02;4.25;;;2.13;;
79668;SDS011;69136;52.614;6.976;2024-03-02T09:57:47;5.10;;;2.50;;
79668;SDS011;69136;52.614;6.976;2024-03-02T10:00:32;3.55;;;2.22;;
79668;SDS011;69136;52.614;6.976;2024-03-02T10:03:18;4.65;;;2.20;;
79668;SDS011;69136;52.614;6.976;2024-03-02T10:06:19;2.53;;;2.22;;
79668;SDS011;69136;52.614;6.976;2024-03-02T10:09:03;3.05;;;1.98;;
79668;SDS011;69136;52.614;6.976;2024-03-02T10:14:31;4.43;;;2.40;;
79668;SDS011;69136;52.614;6.976;2024-03-02T10:23:13;4.38;;;2.10;;
79668;SDS011;69136;52.614;6.976;2024-03-02T10:25:58;3.40;;;1.77;;
79668;SDS011;69136;52.614;6.976;2024-03-02T10:31:30;2.67;;;1.45;;
79668;SDS011;69136;52.614;6.976;2024-03-02T10:34:15;3.10;;;1.48;;
79668;SDS011;69136;52.614;6.976;2024-03-02T10:37:02;3.35;;;1.80;;
79668;SDS011;69136;52.614;6.976;2024-03-02T10:39:47;3.22;;;2.20;;
79668;SDS011;69136;52.614;6.976;2024-03-02T10:42:31;4.32;;;1.60;;
79668;SDS011;69136;52.614;6.976;2024-03-02T10:45:16;3.83;;;1.83;;
79668;SDS011;69136;52.614;6.976;2024-03-02T10:48:01;2.58;;;1.42;;
79668;SDS011;69136;52.614;6.976;2024-03-02T10:50:46;2.05;;;1.40;;
79668;SDS011;69136;52.614;6.976;2024-03-02T10:53:30;3.47;;;1.33;;
79668;SDS011;69136;52.614;6.976;2024-03-02T10:56:16;3.17;;;1.10;;
79668;SDS011;69136;52.614;6.976;2024-03-02T11:02:17;2.55;;;1.50;;
79668;SDS011;69136;52.614;6.976;2024-03-02T11:05:01;2.67;;;1.70;;
79668;SDS011;69136;52.614;6.976;2024-03-02T11:07:52;2.05;;;1.60;;
79668;SDS011;69136;52.614;6.976;2024-03-02T11:10:45;2.88;;;1.50;;
79668;SDS011;69136;52.614;6.976;2024-03-02T11:13:37;2.08;;;1.58;;
79668;SDS011;69136;52.614;6.976;2024-03-02T11:16:33;2.00;;;1.80;;
79668;SDS011;69136;52.614;6.976;2024-03-02T11:19:19;2.65;;;1.70;;
79668;SDS011;69136;52.614;6.976;2024-03-02T11:22:03;3.25;;;1.77;;
79668;SDS011;69136;52.614;6.976;2024-03-02T11:24:51;2.33;;;1.52;;
79668;SDS011;69136;52.614;6.976;2024-03-02T11:33:18;2.05;;;1.80;;
79668;SDS011;69136;52.614;6.976;2024-03-02T11:36:07;2.75;;;1.60;;
79668;SDS011;69136;52.614;6.976;2024-03-02T11:38:51;3.65;;;2.10;;
79668;SDS011;69136;52.614;6.976;2024-03-02T11:41:37;3.20;;;2.35;;
79668;SDS011;69136;52.614;6.976;2024-03-02T11:44:21;4.35;;;1.80;;
79668;SDS011;69136;52.614;6.976;2024-03-02T11:47:07;2.42;;;1.48;;
79668;SDS011;69136;52.614;6.976;2024-03-02T11:49:52;2.38;;;1.13;;
79668;SDS011;69136;52.614;6.976;2024-03-02T11:52:36;2.35;;;1.60;;
79668;SDS011;69136;52.614;6.976;2024-03-02T11:55:22;2.67;;;1.40;;
79668;SDS011;69136;52.614;6.976;2024-03-02T11:58:07;2.75;;;1.20;;
79668;SDS011;69136;52.614;6.976;2024-03-02T12:00:51;3.47;;;1.65;;
79668;SDS011;69136;52.614;6.976;2024-03-02T12:03:36;1.92;;;1.00;;
79668;SDS011;69136;52.614;6.976;2024-03-02T12:06:19;1.42;;;1.05;;
79668;SDS011;69136;52.614;6.976;2024-03-02T12:09:05;3.05;;;1.13;;
79668;SDS011;69136;52.614;6.976;2024-03-02T12:12:00;3.67;;;1.08;;
79668;SDS011;69136;52.614;6.976;2024-03-02T12:14:51;1.83;;;1.00;;
79668;SDS011;69136;52.614;6.976;2024-03-02T12:17:36;2.08;;;1.10;;
79668;SDS011;69136;52.614;6.976;2024-03-02T12:20:22;2.13;;;1.10;;
79668;SDS011;69136;52.614;6.976;2024-03-02T12:23:07;2.95;;;1.13;;
79668;SDS011;69136;52.614;6.976;2024-03-02T12:25:51;2.65;;;1.25;;
79668;SDS011;69136;52.614;6.976;2024-03-02T12:28:36;2.47;;;1.13;;
79668;SDS011;69136;52.614;6.976;2024-03-02T12:31:20;5.05;;;2.20;;
79668;SDS011;69136;52.614;6.976;2024-03-02T12:34:04;2.55;;;1.15;;
79668;SDS011;69136;52.614;6.976;2024-03-02T12:36:49;1.85;;;0.93;;
79668;SDS011;69136;52.614;6.976;2024-03-02T12:39:36;4.55;;;2.40;;
79668;SDS011;69136;52.614;6.976;2024-03-02T12:45:04;2.65;;;0.75;;
79668;SDS011;69136;52.614;6.976;2024-03-02T12:47:49;2.35;;;1.00;;
79668;SDS011;69136;52.614;6.976;2024-03-02T12:50:35;1.48;;;0.90;;
79668;SDS011;69136;52.614;6.976;2024-03-02T12:53:19;1.33;;;0.80;;
79668;SDS011;69136;52.614;6.976;2024-03-02T12:56:05;2.97;;;0.93;;
79668;SDS011;69136;52.614;6.976;2024-03-02T12:58:55;1.88;;;1.02;;
79668;SDS011;69136;52.614;6.976;2024-03-02T13:01:49;2.78;;;1.10;;
79668;SDS011;69136;52.614;6.976;2024-03-02T13:04:34;2.42;;;1.23;;
79668;SDS011;69136;52.614;6.976;2024-03-02T13:07:18;3.60;;;1.23;;
79668;SDS011;69136;52.614;6.976;2024-03-02T13:10:02;3.13;;;1.23;;
79668;SDS011;69136;52.614;6.976;2024-03-02T13:12:46;2.25;;;1.23;;
79668;SDS011;69136;52.614;6.976;2024-03-02T13:15:32;2.78;;;1.63;;
79668;SDS011;69136;52.614;6.976;2024-03-02T13:18:20;2.33;;;1.40;;
79668;SDS011;69136;52.614;6.976;2024-03-02T13:21:05;3.05;;;1.42;;
79668;SDS011;69136;52.614;6.976;2024-03-02T13:23:49;2.15;;;1.52;;
79668;SDS011;69136;52.614;6.976;2024-03-02T13:26:33;2.58;;;1.75;;
79668;SDS011;69136;52.614;6.976;2024-03-02T13:29:18;1.67;;;1.30;;
79668;SDS011;69136;52.614;6.976;2024-03-02T13:32:02;5.80;;;1.30;;
79668;SDS011;69136;52.614;6.976;2024-03-02T13:34:46;3.10;;;1.38;;
79668;SDS011;69136;52.614;6.976;2024-03-02T13:37:30;4.75;;;1.65;;
79668;SDS011;69136;52.614;6.976;2024-03-02T13:40:15;3.25;;;1.85;;
79668;SDS011;69136;52.614;6.976;2024-03-02T13:43:03;6.00;;;1.63;;
79668;SDS011;69136;52.614;6.976;2024-03-02T13:45:48;5.25;;;2.10;;
79668;SDS011;69136;52.614;6.976;2024-03-02T13:48:32;9.13;;;2.97;;
79668;SDS011;69136;52.614;6.976;2024-03-02T13:51:16;6.63;;;2.38;;
79668;SDS011;69136;52.614;6.976;2024-03-02T13:54:00;5.78;;;2.95;;
79668;SDS011;69136;52.614;6.976;2024-03-02T13:56:46;1.90;;;1.42;;
79668;SDS011;69136;52.614;6.976;2024-03-02T13:59:31;2.70;;;1.30;;
79668;SDS011;69136;52.614;6.976;2024-03-02T14:02:15;2.15;;;1.15;;
79668;SDS011;69136;52.614;6.976;2024-03-02T14:04:59;1.83;;;1.27;;
79668;SDS011;69136;52.614;6.976;2024-03-02T14:07:44;2.28;;;1.30;;
79668;SDS011;69136;52.614;6.976;2024-03-02T14:10:28;2.85;;;1.35;;
79668;SDS011;69136;52.614;6.976;2024-03-02T14:13:12;2.25;;;1.10;;
79668;SDS011;69136;52.614;6.976;2024-03-02T14:15:56;1.98;;;1.38;;
79668;SDS011;69136;52.614;6.976;2024-03-02T14:18:41;3.20;;;1.17;;
79668;SDS011;69136;52.614;6.976;2024-03-02T14:21:25;2.63;;;1.27;;
79668;SDS011;69136;52.614;6.976;2024-03-02T14:24:10;2.50;;;1.30;;
79668;SDS011;69136;52.614;6.976;2024-03-02T14:26:54;2.75;;;1.30;;
79668;SDS011;69136;52.614;6.976;2024-03-02T14:29:41;2.20;;;1.10;;
79668;SDS011;69136;52.614;6.976;2024-03-02T14:32:25;2.00;;;1.15;;
79668;SDS011;69136;52.614;6.976;2024-03-02T14:35:10;1.40;;;1.10;;
79668;SDS011;69136;52.614;6.976;2024-03-02T14:37:54;3.17;;;1.10;;
79668;SDS011;69136;52.614;6.976;2024-03-02T14:40:41;4.78;;;2.30;;
79668;SDS011;69136;52.614;6.976;2024-03-02T14:43:25;1.63;;;0.90;;
79668;SDS011;69136;52.614;6.976;2024-03-02T14:46:09;2.72;;;0.98;;
79668;SDS011;69136;52.614;6.976;2024-03-02T14:48:54;5.70;;;3.15;;
79668;SDS011;69136;52.614;6.976;2024-03-02T14:51:38;8.10;;;4.18;;
79668;SDS011;69136;52.614;6.976;2024-03-02T14:54:22;11.98;;;5.68;;
79668;SDS011;69136;52.614;6.976;2024-03-02T14:57:06;4.03;;;1.25;;
79668;SDS011;69136;52.614;6.976;2024-03-02T14:59:51;8.68;;;3.92;;
79668;SDS011;69136;52.614;6.976;2024-03-02T15:02:35;8.38;;;5.00;;
79668;SDS011;69136;52.614;6.976;2024-03-02T15:05:19;6.70;;;2.67;;
79668;SDS011;69136;52.614;6.976;2024-03-02T15:08:03;5.85;;;1.88;;
79668;SDS011;69136;52.614;6.976;2024-03-02T15:10:48;4.00;;;2.33;;
79668;SDS011;69136;52.614;6.976;2024-03-02T15:13:33;2.33;;;1.50;;
79668;SDS011;69136;52.614;6.976;2024-03-02T15:16:18;3.35;;;2.00;;
79668;SDS011;69136;52.614;6.976;2024-03-02T15:19:02;6.55;;;1.95;;
79668;SDS011;69136;52.614;6.976;2024-03-02T15:21:47;2.08;;;1.05;;
79668;SDS011;69136;52.614;6.976;2024-03-02T15:24:31;1.30;;;1.00;;
79668;SDS011;69136;52.614;6.976;2024-03-02T15:27:15;1.88;;;1.45;;
79668;SDS011;69136;52.614;6.976;2024-03-02T15:29:59;1.80;;;1.10;;
79668;SDS011;69136;52.614;6.976;2024-03-02T15:32:44;1.65;;;1.50;;
79668;SDS011;69136;52.614;6.976;2024-03-02T15:35:28;5.40;;;1.67;;
79668;SDS011;69136;52.614;6.976;2024-03-02T15:38:12;2.22;;;1.35;;
79668;SDS011;69136;52.614;6.976;2024-03-02T15:40:59;2.85;;;1.30;;
79668;SDS011;69136;52.614;6.976;2024-03-02T15:43:43;2.90;;;1.40;;
79668;SDS011;69136;52.614;6.976;2024-03-02T15:46:27;1.30;;;1.08;;
79668;SDS011;69136;52.614;6.976;2024-03-02T15:49:11;1.42;;;0.90;;
79668;SDS011;69136;52.614;6.976;2024-03-02T15:51:55;9.02;;;1.52;;
79668;SDS011;69136;52.614;6.976;2024-03-02T15:54:39;2.25;;;0.98;;
79668;SDS011;69136;52.614;6.976;2024-03-02T15:57:24;1.50;;;1.10;;
79668;SDS011;69136;52.614;6.976;2024-03-02T16:00:09;1.60;;;1.10;;
79668;SDS011;69136;52.614;6.976;2024-03-02T16:02:56;1.58;;;1.17;;
79668;SDS011;69136;52.614;6.976;2024-03-02T16:05:40;1.92;;;1.10;;
79668;SDS011;69136;52.614;6.976;2024-03-02T16:08:24;1.33;;;0.95;;
79668;SDS011;69136;52.614;6.976;2024-03-02T16:11:08;1.60;;;1.00;;
79668;SDS011;69136;52.614;6.976;2024-03-02T16:13:53;1.88;;;1.30;;
79668;SDS011;69136;52.614;6.976;2024-03-02T16:16:36;1.98;;;1.30;;
79668;SDS011;69136;52.614;6.976;2024-03-02T16:19:21;4.35;;;1.52;;
79668;SDS011;69136;52.614;6.976;2024-03-02T16:22:05;2.67;;;1.33;;
79668;SDS011;69136;52.614;6.976;2024-03-02T16:24:52;2.25;;;1.60;;
79668;SDS011;69136;52.614;6.976;2024-03-02T16:27:36;1.25;;;0.88;;
79668;SDS011;69136;52.614;6.976;2024-03-02T16:30:20;2.75;;;1.02;;
79668;SDS011;69136;52.614;6.976;2024-03-02T16:33:04;1.58;;;1.10;;
79668;SDS011;69136;52.614;6.976;2024-03-02T16:35:49;1.60;;;1.10;;
79668;SDS011;69136;52.614;6.976;2024-03-02T16:38:33;1.58;;;0.80;;
79668;SDS011;69136;52.614;6.976;2024-03-02T16:41:18;1.15;;;0.90;;
79668;SDS011;69136;52.614;6.976;2024-03-02T16:44:03;1.75;;;0.80;;
79668;SDS011;69136;52.614;6.976;2024-03-02T16:46:48;1.23;;;0.95;;
79668;SDS011;69136;52.614;6.976;2024-03-02T16:49:33;1.67;;;0.98;;
79668;SDS011;69136;52.614;6.976;2024-03-02T16:52:17;1.83;;;1.13;;
79668;SDS011;69136;52.614;6.976;2024-03-02T16:55:01;2.33;;;1.10;;
79668;SDS011;69136;52.614;6.976;2024-03-02T16:57:46;1.55;;;1.10;;
79668;SDS011;69136;52.614;6.976;2024-03-02T17:00:30;2.70;;;0.88;;
79668;SDS011;69136;52.614;6.976;2024-03-02T17:03:14;1.15;;;0.80;;
79668;SDS011;69136;52.614;6.976;2024-03-02T17:05:58;1.20;;;1.10;;
79668;SDS011;69136;52.614;6.976;2024-03-02T17:11:26;2.70;;;1.13;;
79668;SDS011;69136;52.614;6.976;2024-03-02T17:14:10;1.80;;;1.02;;
79668;SDS011;69136;52.614;6.976;2024-03-02T17:16:54;1.73;;;1.10;;
79668;SDS011;69136;52.614;6.976;2024-03-02T17:19:38;1.33;;;1.23;;
79668;SDS011;69136;52.614;6.976;2024-03-02T17:22:22;1.25;;;0.98;;
79668;SDS011;69136;52.614;6.976;2024-03-02T17:25:07;1.42;;;1.15;;
79668;SDS011;69136;52.614;6.976;2024-03-02T17:27:52;1.83;;;1.10;;
79668;SDS011;69136;52.614;6.976;2024-03-02T17:30:36;1.13;;;1.02;;
79668;SDS011;69136;52.614;6.976;2024-03-02T17:33:20;1.95;;;1.08;;
79668;SDS011;69136;52.614;6.976;2024-03-02T17:36:04;1.33;;;1.20;;
79668;SDS011;69136;52.614;6.976;2024-03-02T17:38:48;1.25;;;1.00;;
79668;SDS011;69136;52.614;6.976;2024-03-02T17:41:32;2.10;;;0.98;;
79668;SDS011;69136;52.614;6.976;2024-03-02T17:44:17;1.48;;;0.90;;
79668;SDS011;69136;52.614;6.976;2024-03-02T17:47:00;1.50;;;1.15;;
79668;SDS011;69136;52.614;6.976;2024-03-02T17:49:44;2.20;;;1.67;;
79668;SDS011;69136;52.614;6.976;2024-03-02T17:52:28;2.35;;;1.20;;
79668;SDS011;69136;52.614;6.976;2024-03-02T17:55:13;1.70;;;1.50;;
79668;SDS011;69136;52.614;6.976;2024-03-02T17:57:57;2.83;;;2.50;;
79668;SDS011;69136;52.614;6.976;2024-03-02T18:00:41;1.63;;;1.15;;
79668;SDS011;69136;52.614;6.976;2024-03-02T18:03:26;2.72;;;1.10;;
79668;SDS011;69136;52.614;6.976;2024-03-02T18:06:10;2.17;;;1.67;;
79668;SDS011;69136;52.614;6.976;2024-03-02T18:08:56;2.58;;;1.30;;
79668;SDS011;69136;52.614;6.976;2024-03-02T18:11:40;2.10;;;1.30;;
79668;SDS011;69136;52.614;6.976;2024-03-02T18:17:08;2.80;;;1.10;;
79668;SDS011;69136;52.614;6.976;2024-03-02T18:19:52;1.83;;;1.20;;
79668;SDS011;69136;52.614;6.976;2024-03-02T18:22:36;1.80;;;1.10;;
79668;SDS011;69136;52.614;6.976;2024-03-02T18:25:20;1.70;;;1.10;;
79668;SDS011;69136;52.614;6.976;2024-03-02T18:28:04;2.30;;;1.30;;
79668;SDS011;69136;52.614;6.976;2024-03-02T18:30:49;1.60;;;1.10;;
79668;SDS011;69136;52.614;6.976;2024-03-02T18:33:33;1.35;;;1.10;;
79668;SDS011;69136;52.614;6.976;2024-03-02T18:36:17;1.60;;;1.30;;
79668;SDS011;69136;52.614;6.976;2024-03-02T18:39:01;1.80;;;1.27;;
79668;SDS011;69136;52.614;6.976;2024-03-02T18:41:45;1.85;;;1.20;;
79668;SDS011;69136;52.614;6.976;2024-03-02T18:44:29;2.53;;;1.40;;
79668;SDS011;69136;52.614;6.976;2024-03-02T18:47:13;2.70;;;1.52;;
79668;SDS011;69136;52.614;6.976;2024-03-02T18:49:57;2.10;;;1.63;;
79668;SDS011;69136;52.614;6.976;2024-03-02T18:52:42;2.10;;;1.50;;
79668;SDS011;69136;52.614;6.976;2024-03-02T18:55:28;2.67;;;2.00;;
79668;SDS011;69136;52.614;6.976;2024-03-02T18:58:12;3.03;;;2.30;;
79668;SDS011;69136;52.614;6.976;2024-03-02T19:03:40;3.35;;;2.35;;
79668;SDS011;69136;52.614;6.976;2024-03-02T19:06:23;3.70;;;1.88;;
79668;SDS011;69136;52.614;6.976;2024-03-02T19:09:08;3.42;;;1.90;;
79668;SDS011;69136;52.614;6.976;2024-03-02T19:11:53;4.20;;;2.33;;
79668;SDS011;69136;52.614;6.976;2024-03-02T19:14:39;3.00;;;2.05;;